sensor_id;sensor_type;location;lat;lon;timestamp;P1;durP1;ratioP1;P2;durP2;ratioP2
85137;SDS011;75497;42.708;23.330;2024-01-25T00:01:37;30.77;;;15.15;;
85137;SDS011;75497;42.708;23.330;2024-01-25T00:04:04;32.85;;;16.95;;
85137;SDS011;75497;42.708;23.330;2024-01-25T00:06:29;35.50;;;16.80;;
85137;SDS011;75497;42.708;23.330;2024-01-25T00:08:55;27.50;;;12.55;;
85137;SDS011;75497;42.708;23.330;2024-01-25T00:11:20;31.77;;;14.35;;
85137;SDS011;75497;42.708;23.330;2024-01-25T00:13:45;39.60;;;13.48;;
85137;SDS011;75497;42.708;23.330;2024-01-25T00:16:11;31.58;;;14.18;;
85137;SDS011;75497;42.708;23.330;2024-01-25T00:18:36;29.27;;;13.93;;
85137;SDS011;75497;42.708;23.330;2024-01-25T00:21:02;30.85;;;14.50;;
85137;SDS011;75497;42.708;23.330;2024-01-25T00:23:27;29.27;;;12.70;;
85137;SDS011;75497;42.708;23.330;2024-01-25T00:25:53;27.33;;;12.27;;
85137;SDS011;75497;42.708;23.330;2024-01-25T00:28:21;22.33;;;11.77;;
85137;SDS011;75497;42.708;23.330;2024-01-25T00:30:46;26.65;;;12.95;;
85137;SDS011;75497;42.708;23.330;2024-01-25T00:33:12;30.92;;;13.77;;
85137;SDS011;75497;42.708;23.330;2024-01-25T00:35:37;32.40;;;14.15;;
85137;SDS011;75497;42.708;23.330;2024-01-25T00:38:03;25.27;;;13.50;;
85137;SDS011;75497;42.708;23.330;2024-01-25T00:40:29;33.53;;;20.42;;
85137;SDS011;75497;42.708;23.330;2024-01-25T00:42:54;31.63;;;20.60;;
85137;SDS011;75497;42.708;23.330;2024-01-25T00:45:21;26.73;;;12.25;;
85137;SDS011;75497;42.708;23.330;2024-01-25T00:47:47;28.88;;;11.77;;
85137;SDS011;75497;42.708;23.330;2024-01-25T00:50:13;23.08;;;11.40;;
85137;SDS011;75497;42.708;23.330;2024-01-25T00:52:39;23.52;;;10.32;;
85137;SDS011;75497;42.708;23.330;2024-01-25T00:55:05;24.40;;;10.70;;
85137;SDS011;75497;42.708;23.330;2024-01-25T00:57:31;23.83;;;11.60;;
85137;SDS011;75497;42.708;23.330;2024-01-25T00:59:58;30.75;;;16.67;;
85137;SDS011;75497;42.708;23.330;2024-01-25T01:02:24;28.33;;;16.05;;
85137;SDS011;75497;42.708;23.330;2024-01-25T01:07:21;20.70;;;9.60;;
85137;SDS011;75497;42.708;23.330;2024-01-25T01:09:46;18.45;;;10.55;;
85137;SDS011;75497;42.708;23.330;2024-01-25T01:12:12;24.70;;;10.43;;
85137;SDS011;75497;42.708;23.330;2024-01-25T01:14:39;15.23;;;6.47;;
85137;SDS011;75497;42.708;23.330;2024-01-25T01:17:04;11.95;;;5.13;;
85137;SDS011;75497;42.708;23.330;2024-01-25T01:19:30;15.93;;;6.40;;
85137;SDS011;75497;42.708;23.330;2024-01-25T01:21:56;12.35;;;4.93;;
85137;SDS011;75497;42.708;23.330;2024-01-25T01:24:21;14.45;;;4.97;;
85137;SDS011;75497;42.708;23.330;2024-01-25T01:26:47;11.93;;;4.55;;
85137;SDS011;75497;42.708;23.330;2024-01-25T01:29:13;10.13;;;4.00;;
85137;SDS011;75497;42.708;23.330;2024-01-25T01:31:39;11.45;;;4.55;;
85137;SDS011;75497;42.708;23.330;2024-01-25T01:34:04;16.55;;;5.07;;
85137;SDS011;75497;42.708;23.330;2024-01-25T01:36:30;14.30;;;6.70;;
85137;SDS011;75497;42.708;23.330;2024-01-25T01:38:55;21.48;;;8.88;;
85137;SDS011;75497;42.708;23.330;2024-01-25T01:41:21;21.98;;;9.52;;
85137;SDS011;75497;42.708;23.330;2024-01-25T01:43:46;24.92;;;11.27;;
85137;SDS011;75497;42.708;23.330;2024-01-25T01:46:14;22.92;;;9.63;;
85137;SDS011;75497;42.708;23.330;2024-01-25T01:48:52;19.85;;;8.98;;
85137;SDS011;75497;42.708;23.330;2024-01-25T01:51:17;22.65;;;9.30;;
85137;SDS011;75497;42.708;23.330;2024-01-25T01:53:43;24.42;;;9.80;;
85137;SDS011;75497;42.708;23.330;2024-01-25T01:56:09;19.75;;;8.70;;
85137;SDS011;75497;42.708;23.330;2024-01-25T01:58:35;17.05;;;8.32;;
85137;SDS011;75497;42.708;23.330;2024-01-25T02:01:00;18.05;;;7.80;;
85137;SDS011;75497;42.708;23.330;2024-01-25T02:03:27;18.05;;;6.78;;
85137;SDS011;75497;42.708;23.330;2024-01-25T02:05:53;19.00;;;6.63;;
85137;SDS011;75497;42.708;23.330;2024-01-25T02:08:19;17.80;;;6.85;;
85137;SDS011;75497;42.708;23.330;2024-01-25T02:10:45;15.45;;;7.25;;
85137;SDS011;75497;42.708;23.330;2024-01-25T02:13:10;17.45;;;7.40;;
85137;SDS011;75497;42.708;23.330;2024-01-25T02:15:36;19.08;;;8.23;;
85137;SDS011;75497;42.708;23.330;2024-01-25T02:18:01;21.02;;;9.23;;
85137;SDS011;75497;42.708;23.330;2024-01-25T02:20:28;17.15;;;8.20;;
85137;SDS011;75497;42.708;23.330;2024-01-25T02:22:53;20.15;;;8.35;;
85137;SDS011;75497;42.708;23.330;2024-01-25T02:25:18;20.65;;;9.07;;
85137;SDS011;75497;42.708;23.330;2024-01-25T02:27:44;17.33;;;7.53;;
85137;SDS011;75497;42.708;23.330;2024-01-25T02:30:09;16.80;;;7.03;;
85137;SDS011;75497;42.708;23.330;2024-01-25T02:32:35;18.92;;;7.95;;
85137;SDS011;75497;42.708;23.330;2024-01-25T02:35:01;18.92;;;7.05;;
85137;SDS011;75497;42.708;23.330;2024-01-25T02:37:26;16.63;;;7.55;;
85137;SDS011;75497;42.708;23.330;2024-01-25T02:39:52;17.50;;;7.63;;
85137;SDS011;75497;42.708;23.330;2024-01-25T02:42:18;14.70;;;5.70;;
85137;SDS011;75497;42.708;23.330;2024-01-25T02:44:43;14.20;;;6.10;;
85137;SDS011;75497;42.708;23.330;2024-01-25T02:47:09;13.02;;;5.70;;
85137;SDS011;75497;42.708;23.330;2024-01-25T02:49:35;12.52;;;4.60;;
85137;SDS011;75497;42.708;23.330;2024-01-25T02:52:00;10.07;;;4.20;;
85137;SDS011;75497;42.708;23.330;2024-01-25T02:54:26;13.07;;;4.78;;
85137;SDS011;75497;42.708;23.330;2024-01-25T02:56:52;11.07;;;4.32;;
85137;SDS011;75497;42.708;23.330;2024-01-25T02:59:17;13.73;;;4.53;;
85137;SDS011;75497;42.708;23.330;2024-01-25T03:01:43;18.05;;;5.30;;
85137;SDS011;75497;42.708;23.330;2024-01-25T03:04:10;10.40;;;4.05;;
85137;SDS011;75497;42.708;23.330;2024-01-25T03:06:35;10.65;;;4.68;;
85137;SDS011;75497;42.708;23.330;2024-01-25T03:09:01;10.85;;;4.00;;
85137;SDS011;75497;42.708;23.330;2024-01-25T03:11:29;9.77;;;3.53;;
85137;SDS011;75497;42.708;23.330;2024-01-25T03:13:55;7.40;;;2.20;;
85137;SDS011;75497;42.708;23.330;2024-01-25T03:16:20;7.47;;;1.50;;
85137;SDS011;75497;42.708;23.330;2024-01-25T03:18:46;6.75;;;0.90;;
85137;SDS011;75497;42.708;23.330;2024-01-25T03:21:11;3.15;;;0.50;;
85137;SDS011;75497;42.708;23.330;2024-01-25T03:23:37;3.15;;;0.40;;
85137;SDS011;75497;42.708;23.330;2024-01-25T03:26:04;4.38;;;0.50;;
85137;SDS011;75497;42.708;23.330;2024-01-25T03:28:29;3.53;;;0.63;;
85137;SDS011;75497;42.708;23.330;2024-01-25T03:30:54;3.40;;;0.77;;
85137;SDS011;75497;42.708;23.330;2024-01-25T03:33:20;4.50;;;0.40;;
85137;SDS011;75497;42.708;23.330;2024-01-25T03:35:46;4.32;;;0.60;;
85137;SDS011;75497;42.708;23.330;2024-01-25T03:38:11;6.32;;;0.88;;
85137;SDS011;75497;42.708;23.330;2024-01-25T03:40:39;5.32;;;1.13;;
85137;SDS011;75497;42.708;23.330;2024-01-25T03:43:04;3.78;;;1.00;;
85137;SDS011;75497;42.708;23.330;2024-01-25T03:45:30;7.45;;;1.50;;
85137;SDS011;75497;42.708;23.330;2024-01-25T03:47:57;5.70;;;1.13;;
85137;SDS011;75497;42.708;23.330;2024-01-25T03:50:23;7.93;;;1.55;;
85137;SDS011;75497;42.708;23.330;2024-01-25T03:52:48;7.22;;;1.65;;
85137;SDS011;75497;42.708;23.330;2024-01-25T03:55:14;6.60;;;1.65;;
85137;SDS011;75497;42.708;23.330;2024-01-25T03:57:39;7.63;;;2.15;;
85137;SDS011;75497;42.708;23.330;2024-01-25T04:00:05;7.13;;;1.77;;
85137;SDS011;75497;42.708;23.330;2024-01-25T04:02:31;6.60;;;2.00;;
85137;SDS011;75497;42.708;23.330;2024-01-25T04:04:57;9.13;;;2.78;;
85137;SDS011;75497;42.708;23.330;2024-01-25T04:07:22;9.07;;;2.55;;
85137;SDS011;75497;42.708;23.330;2024-01-25T04:09:48;10.63;;;2.90;;
85137;SDS011;75497;42.708;23.330;2024-01-25T04:12:15;10.50;;;2.90;;
85137;SDS011;75497;42.708;23.330;2024-01-25T04:14:41;10.63;;;2.67;;
85137;SDS011;75497;42.708;23.330;2024-01-25T04:17:06;9.35;;;3.25;;
85137;SDS011;75497;42.708;23.330;2024-01-25T04:19:32;10.48;;;2.45;;
85137;SDS011;75497;42.708;23.330;2024-01-25T04:21:57;8.52;;;3.13;;
85137;SDS011;75497;42.708;23.330;2024-01-25T04:24:23;8.25;;;2.28;;
85137;SDS011;75497;42.708;23.330;2024-01-25T04:26:49;6.50;;;2.40;;
85137;SDS011;75497;42.708;23.330;2024-01-25T04:29:14;8.10;;;2.65;;
85137;SDS011;75497;42.708;23.330;2024-01-25T04:31:43;7.40;;;2.30;;
85137;SDS011;75497;42.708;23.330;2024-01-25T04:34:13;7.20;;;1.95;;
85137;SDS011;75497;42.708;23.330;2024-01-25T04:36:39;9.52;;;2.00;;
85137;SDS011;75497;42.708;23.330;2024-01-25T04:39:05;8.65;;;2.15;;
85137;SDS011;75497;42.708;23.330;2024-01-25T04:41:31;6.07;;;1.95;;
85137;SDS011;75497;42.708;23.330;2024-01-25T04:43:56;7.22;;;1.88;;
85137;SDS011;75497;42.708;23.330;2024-01-25T04:46:22;9.20;;;2.33;;
85137;SDS011;75497;42.708;23.330;2024-01-25T04:48:47;7.72;;;1.88;;
85137;SDS011;75497;42.708;23.330;2024-01-25T04:51:16;8.30;;;2.42;;
85137;SDS011;75497;42.708;23.330;2024-01-25T04:53:42;8.32;;;2.50;;
85137;SDS011;75497;42.708;23.330;2024-01-25T04:56:08;9.52;;;2.58;;
85137;SDS011;75497;42.708;23.330;2024-01-25T04:58:33;8.45;;;2.63;;
85137;SDS011;75497;42.708;23.330;2024-01-25T05:00:59;8.98;;;2.78;;
85137;SDS011;75497;42.708;23.330;2024-01-25T05:03:25;7.07;;;2.50;;
85137;SDS011;75497;42.708;23.330;2024-01-25T05:05:51;7.50;;;2.50;;
85137;SDS011;75497;42.708;23.330;2024-01-25T05:08:16;6.40;;;2.22;;
85137;SDS011;75497;42.708;23.330;2024-01-25T05:10:42;6.18;;;1.98;;
85137;SDS011;75497;42.708;23.330;2024-01-25T05:13:08;6.90;;;2.08;;
85137;SDS011;75497;42.708;23.330;2024-01-25T05:15:34;7.57;;;3.05;;
85137;SDS011;75497;42.708;23.330;2024-01-25T05:18:00;6.22;;;2.03;;
85137;SDS011;75497;42.708;23.330;2024-01-25T05:20:29;6.80;;;1.80;;
85137;SDS011;75497;42.708;23.330;2024-01-25T05:22:58;8.40;;;2.42;;
85137;SDS011;75497;42.708;23.330;2024-01-25T05:25:24;8.50;;;2.40;;
85137;SDS011;75497;42.708;23.330;2024-01-25T05:27:51;7.90;;;2.28;;
85137;SDS011;75497;42.708;23.330;2024-01-25T05:30:17;8.80;;;2.28;;
85137;SDS011;75497;42.708;23.330;2024-01-25T05:32:43;6.35;;;1.35;;
85137;SDS011;75497;42.708;23.330;2024-01-25T05:35:09;5.38;;;1.45;;
85137;SDS011;75497;42.708;23.330;2024-01-25T05:37:34;6.82;;;1.92;;
85137;SDS011;75497;42.708;23.330;2024-01-25T05:40:00;4.35;;;1.10;;
85137;SDS011;75497;42.708;23.330;2024-01-25T05:42:26;6.35;;;1.55;;
85137;SDS011;75497;42.708;23.330;2024-01-25T05:44:51;5.28;;;1.35;;
85137;SDS011;75497;42.708;23.330;2024-01-25T05:47:17;7.45;;;1.45;;
85137;SDS011;75497;42.708;23.330;2024-01-25T05:49:42;9.60;;;1.58;;
85137;SDS011;75497;42.708;23.330;2024-01-25T05:52:08;4.30;;;0.75;;
85137;SDS011;75497;42.708;23.330;2024-01-25T05:54:33;6.45;;;1.27;;
85137;SDS011;75497;42.708;23.330;2024-01-25T05:56:59;4.90;;;1.20;;
85137;SDS011;75497;42.708;23.330;2024-01-25T05:59:24;5.13;;;1.38;;
85137;SDS011;75497;42.708;23.330;2024-01-25T06:01:50;6.32;;;1.10;;
85137;SDS011;75497;42.708;23.330;2024-01-25T06:04:15;6.50;;;1.45;;
85137;SDS011;75497;42.708;23.330;2024-01-25T06:06:41;7.40;;;2.15;;
85137;SDS011;75497;42.708;23.330;2024-01-25T06:09:07;7.90;;;1.40;;
85137;SDS011;75497;42.708;23.330;2024-01-25T06:11:33;7.43;;;1.70;;
85137;SDS011;75497;42.708;23.330;2024-01-25T06:14:00;4.50;;;1.33;;
85137;SDS011;75497;42.708;23.330;2024-01-25T06:16:26;6.35;;;1.67;;
85137;SDS011;75497;42.708;23.330;2024-01-25T06:18:51;7.35;;;1.70;;
85137;SDS011;75497;42.708;23.330;2024-01-25T06:21:17;6.10;;;1.48;;
85137;SDS011;75497;42.708;23.330;2024-01-25T06:23:42;6.85;;;1.58;;
85137;SDS011;75497;42.708;23.330;2024-01-25T06:26:07;7.88;;;1.85;;
85137;SDS011;75497;42.708;23.330;2024-01-25T06:28:33;5.93;;;1.40;;
85137;SDS011;75497;42.708;23.330;2024-01-25T06:31:00;5.47;;;1.20;;
85137;SDS011;75497;42.708;23.330;2024-01-25T06:33:26;8.27;;;1.65;;
85137;SDS011;75497;42.708;23.330;2024-01-25T06:35:52;5.20;;;1.27;;
85137;SDS011;75497;42.708;23.330;2024-01-25T06:38:17;7.70;;;1.73;;
85137;SDS011;75497;42.708;23.330;2024-01-25T06:40:43;7.13;;;1.90;;
85137;SDS011;75497;42.708;23.330;2024-01-25T06:43:09;6.20;;;1.83;;
85137;SDS011;75497;42.708;23.330;2024-01-25T06:45:34;7.25;;;1.55;;
85137;SDS011;75497;42.708;23.330;2024-01-25T06:48:00;7.38;;;1.88;;
85137;SDS011;75497;42.708;23.330;2024-01-25T06:50:25;8.35;;;1.45;;
85137;SDS011;75497;42.708;23.330;2024-01-25T06:52:51;7.18;;;1.58;;
85137;SDS011;75497;42.708;23.330;2024-01-25T06:55:18;6.65;;;1.52;;
85137;SDS011;75497;42.708;23.330;2024-01-25T06:57:44;8.90;;;2.08;;
85137;SDS011;75497;42.708;23.330;2024-01-25T07:00:10;5.85;;;1.73;;
85137;SDS011;75497;42.708;23.330;2024-01-25T07:02:38;7.05;;;1.75;;
85137;SDS011;75497;42.708;23.330;2024-01-25T07:05:03;6.88;;;2.10;;
85137;SDS011;75497;42.708;23.330;2024-01-25T07:07:29;5.95;;;1.90;;
85137;SDS011;75497;42.708;23.330;2024-01-25T07:09:57;7.68;;;2.03;;
85137;SDS011;75497;42.708;23.330;2024-01-25T07:12:23;6.00;;;1.33;;
85137;SDS011;75497;42.708;23.330;2024-01-25T07:14:48;6.63;;;1.13;;
85137;SDS011;75497;42.708;23.330;2024-01-25T07:17:14;8.32;;;1.73;;
85137;SDS011;75497;42.708;23.330;2024-01-25T07:19:39;7.43;;;1.73;;
85137;SDS011;75497;42.708;23.330;2024-01-25T07:22:05;7.90;;;2.00;;
85137;SDS011;75497;42.708;23.330;2024-01-25T07:24:31;5.95;;;1.55;;
85137;SDS011;75497;42.708;23.330;2024-01-25T07:26:56;6.80;;;1.67;;
85137;SDS011;75497;42.708;23.330;2024-01-25T07:29:22;5.60;;;1.38;;
85137;SDS011;75497;42.708;23.330;2024-01-25T07:31:48;6.60;;;1.70;;
85137;SDS011;75497;42.708;23.330;2024-01-25T07:34:13;6.68;;;1.60;;
85137;SDS011;75497;42.708;23.330;2024-01-25T07:36:39;6.10;;;1.27;;
85137;SDS011;75497;42.708;23.330;2024-01-25T07:39:04;7.97;;;1.58;;
85137;SDS011;75497;42.708;23.330;2024-01-25T07:41:30;7.70;;;1.77;;
85137;SDS011;75497;42.708;23.330;2024-01-25T07:43:56;5.97;;;1.48;;
85137;SDS011;75497;42.708;23.330;2024-01-25T07:46:21;13.27;;;1.88;;
85137;SDS011;75497;42.708;23.330;2024-01-25T07:48:49;9.07;;;2.00;;
85137;SDS011;75497;42.708;23.330;2024-01-25T07:51:15;9.13;;;1.73;;
85137;SDS011;75497;42.708;23.330;2024-01-25T07:53:40;9.35;;;2.20;;
85137;SDS011;75497;42.708;23.330;2024-01-25T07:56:09;14.18;;;2.45;;
85137;SDS011;75497;42.708;23.330;2024-01-25T07:58:36;10.77;;;2.15;;
85137;SDS011;75497;42.708;23.330;2024-01-25T08:01:02;10.13;;;1.98;;
85137;SDS011;75497;42.708;23.330;2024-01-25T08:03:34;10.13;;;2.05;;
85137;SDS011;75497;42.708;23.330;2024-01-25T08:06:01;7.40;;;1.92;;
85137;SDS011;75497;42.708;23.330;2024-01-25T08:08:27;10.07;;;2.10;;
85137;SDS011;75497;42.708;23.330;2024-01-25T08:10:53;9.52;;;2.85;;
85137;SDS011;75497;42.708;23.330;2024-01-25T08:13:19;9.73;;;1.70;;
85137;SDS011;75497;42.708;23.330;2024-01-25T08:15:44;14.38;;;2.15;;
85137;SDS011;75497;42.708;23.330;2024-01-25T08:18:10;6.38;;;1.48;;
85137;SDS011;75497;42.708;23.330;2024-01-25T08:20:39;8.55;;;2.20;;
85137;SDS011;75497;42.708;23.330;2024-01-25T08:23:04;12.80;;;1.88;;
85137;SDS011;75497;42.708;23.330;2024-01-25T08:25:33;8.18;;;1.77;;
85137;SDS011;75497;42.708;23.330;2024-01-25T08:27:59;6.22;;;1.63;;
85137;SDS011;75497;42.708;23.330;2024-01-25T08:30:25;8.63;;;2.00;;
85137;SDS011;75497;42.708;23.330;2024-01-25T08:32:50;12.25;;;1.95;;
85137;SDS011;75497;42.708;23.330;2024-01-25T08:35:16;10.13;;;2.08;;
85137;SDS011;75497;42.708;23.330;2024-01-25T08:37:42;6.72;;;2.15;;
85137;SDS011;75497;42.708;23.330;2024-01-25T08:40:08;7.82;;;1.40;;
85137;SDS011;75497;42.708;23.330;2024-01-25T08:42:34;10.80;;;2.53;;
85137;SDS011;75497;42.708;23.330;2024-01-25T08:45:01;7.10;;;2.15;;
85137;SDS011;75497;42.708;23.330;2024-01-25T08:47:27;8.70;;;1.75;;
85137;SDS011;75497;42.708;23.330;2024-01-25T08:49:52;9.27;;;2.10;;
85137;SDS011;75497;42.708;23.330;2024-01-25T08:52:18;6.47;;;1.77;;
85137;SDS011;75497;42.708;23.330;2024-01-25T08:54:44;8.98;;;2.10;;
85137;SDS011;75497;42.708;23.330;2024-01-25T08:57:09;5.97;;;1.42;;
85137;SDS011;75497;42.708;23.330;2024-01-25T08:59:35;7.55;;;1.60;;
85137;SDS011;75497;42.708;23.330;2024-01-25T09:02:05;8.93;;;1.67;;
85137;SDS011;75497;42.708;23.330;2024-01-25T09:04:31;8.18;;;1.90;;
85137;SDS011;75497;42.708;23.330;2024-01-25T09:06:57;8.48;;;1.58;;
85137;SDS011;75497;42.708;23.330;2024-01-25T09:09:23;9.73;;;2.20;;
85137;SDS011;75497;42.708;23.330;2024-01-25T09:11:49;9.63;;;2.30;;
85137;SDS011;75497;42.708;23.330;2024-01-25T09:14:14;7.32;;;1.48;;
85137;SDS011;75497;42.708;23.330;2024-01-25T09:16:40;8.48;;;1.90;;
85137;SDS011;75497;42.708;23.330;2024-01-25T09:19:06;11.02;;;2.28;;
85137;SDS011;75497;42.708;23.330;2024-01-25T09:21:31;10.30;;;2.00;;
85137;SDS011;75497;42.708;23.330;2024-01-25T09:23:56;7.10;;;1.95;;
85137;SDS011;75497;42.708;23.330;2024-01-25T09:26:22;11.98;;;2.40;;
85137;SDS011;75497;42.708;23.330;2024-01-25T09:28:48;9.48;;;2.83;;
85137;SDS011;75497;42.708;23.330;2024-01-25T09:31:13;9.60;;;1.80;;
85137;SDS011;75497;42.708;23.330;2024-01-25T09:33:39;5.80;;;1.38;;
85137;SDS011;75497;42.708;23.330;2024-01-25T09:36:04;10.60;;;1.35;;
85137;SDS011;75497;42.708;23.330;2024-01-25T09:38:30;8.70;;;1.65;;
85137;SDS011;75497;42.708;23.330;2024-01-25T09:40:56;10.88;;;2.53;;
85137;SDS011;75497;42.708;23.330;2024-01-25T09:43:21;7.22;;;1.52;;
85137;SDS011;75497;42.708;23.330;2024-01-25T09:45:52;9.20;;;2.33;;
85137;SDS011;75497;42.708;23.330;2024-01-25T09:48:21;13.35;;;2.70;;
85137;SDS011;75497;42.708;23.330;2024-01-25T09:50:47;7.68;;;2.42;;
85137;SDS011;75497;42.708;23.330;2024-01-25T09:53:21;8.45;;;2.30;;
85137;SDS011;75497;42.708;23.330;2024-01-25T09:55:55;10.77;;;2.88;;
85137;SDS011;75497;42.708;23.330;2024-01-25T09:58:27;10.18;;;2.47;;
85137;SDS011;75497;42.708;23.330;2024-01-25T10:01:01;11.50;;;3.10;;
85137;SDS011;75497;42.708;23.330;2024-01-25T10:03:27;9.05;;;3.17;;
85137;SDS011;75497;42.708;23.330;2024-01-25T10:05:52;16.27;;;5.10;;
85137;SDS011;75497;42.708;23.330;2024-01-25T10:08:18;16.95;;;4.68;;
85137;SDS011;75497;42.708;23.330;2024-01-25T10:10:46;13.80;;;4.40;;
85137;SDS011;75497;42.708;23.330;2024-01-25T10:13:12;11.52;;;3.67;;
85137;SDS011;75497;42.708;23.330;2024-01-25T10:15:38;9.23;;;3.13;;
85137;SDS011;75497;42.708;23.330;2024-01-25T10:18:06;11.43;;;3.83;;
85137;SDS011;75497;42.708;23.330;2024-01-25T10:20:38;14.90;;;4.20;;
85137;SDS011;75497;42.708;23.330;2024-01-25T10:23:05;11.05;;;2.97;;
85137;SDS011;75497;42.708;23.330;2024-01-25T10:25:32;12.05;;;3.47;;
85137;SDS011;75497;42.708;23.330;2024-01-25T10:27:59;9.27;;;3.17;;
85137;SDS011;75497;42.708;23.330;2024-01-25T10:30:25;9.90;;;2.40;;
85137;SDS011;75497;42.708;23.330;2024-01-25T10:32:50;8.82;;;2.40;;
85137;SDS011;75497;42.708;23.330;2024-01-25T10:35:17;12.23;;;3.58;;
85137;SDS011;75497;42.708;23.330;2024-01-25T10:37:45;11.32;;;3.80;;
85137;SDS011;75497;42.708;23.330;2024-01-25T10:40:11;10.48;;;3.10;;
85137;SDS011;75497;42.708;23.330;2024-01-25T10:42:37;11.48;;;3.03;;
85137;SDS011;75497;42.708;23.330;2024-01-25T10:45:02;14.50;;;3.25;;
85137;SDS011;75497;42.708;23.330;2024-01-25T10:47:29;8.75;;;2.53;;
85137;SDS011;75497;42.708;23.330;2024-01-25T10:49:59;12.05;;;3.22;;
85137;SDS011;75497;42.708;23.330;2024-01-25T10:52:27;13.68;;;3.15;;
85137;SDS011;75497;42.708;23.330;2024-01-25T10:54:54;14.70;;;3.17;;
85137;SDS011;75497;42.708;23.330;2024-01-25T10:57:19;10.68;;;2.88;;
85137;SDS011;75497;42.708;23.330;2024-01-25T10:59:45;10.45;;;3.58;;
85137;SDS011;75497;42.708;23.330;2024-01-25T11:02:11;13.88;;;2.60;;
85137;SDS011;75497;42.708;23.330;2024-01-25T11:04:37;13.23;;;3.10;;
85137;SDS011;75497;42.708;23.330;2024-01-25T11:07:08;10.82;;;2.88;;
85137;SDS011;75497;42.708;23.330;2024-01-25T11:09:35;10.10;;;2.50;;
85137;SDS011;75497;42.708;23.330;2024-01-25T11:12:08;10.48;;;2.53;;
85137;SDS011;75497;42.708;23.330;2024-01-25T11:14:37;9.73;;;2.65;;
85137;SDS011;75497;42.708;23.330;2024-01-25T11:17:19;10.80;;;2.88;;
85137;SDS011;75497;42.708;23.330;2024-01-25T11:19:46;12.90;;;2.90;;
85137;SDS011;75497;42.708;23.330;2024-01-25T11:22:14;8.38;;;2.28;;
85137;SDS011;75497;42.708;23.330;2024-01-25T11:24:39;11.70;;;2.13;;
85137;SDS011;75497;42.708;23.330;2024-01-25T11:27:06;8.98;;;2.20;;
85137;SDS011;75497;42.708;23.330;2024-01-25T11:29:31;8.45;;;2.22;;
85137;SDS011;75497;42.708;23.330;2024-01-25T11:31:57;9.63;;;2.30;;
85137;SDS011;75497;42.708;23.330;2024-01-25T11:34:22;8.48;;;1.85;;
85137;SDS011;75497;42.708;23.330;2024-01-25T11:36:48;9.07;;;1.65;;
85137;SDS011;75497;42.708;23.330;2024-01-25T11:39:14;6.68;;;1.48;;
85137;SDS011;75497;42.708;23.330;2024-01-25T11:41:41;13.98;;;2.22;;
85137;SDS011;75497;42.708;23.330;2024-01-25T11:44:14;10.50;;;2.38;;
85137;SDS011;75497;42.708;23.330;2024-01-25T11:46:40;8.38;;;1.80;;
85137;SDS011;75497;42.708;23.330;2024-01-25T11:49:06;11.63;;;2.60;;
85137;SDS011;75497;42.708;23.330;2024-01-25T11:51:34;8.98;;;2.53;;
85137;SDS011;75497;42.708;23.330;2024-01-25T11:54:00;8.63;;;2.65;;
85137;SDS011;75497;42.708;23.330;2024-01-25T11:56:29;10.63;;;2.15;;
85137;SDS011;75497;42.708;23.330;2024-01-25T11:58:58;16.00;;;2.92;;
85137;SDS011;75497;42.708;23.330;2024-01-25T12:01:24;10.70;;;2.53;;
85137;SDS011;75497;42.708;23.330;2024-01-25T12:03:51;11.90;;;2.40;;
85137;SDS011;75497;42.708;23.330;2024-01-25T12:06:17;10.40;;;2.30;;
85137;SDS011;75497;42.708;23.330;2024-01-25T12:08:43;10.10;;;2.67;;
85137;SDS011;75497;42.708;23.330;2024-01-25T12:11:09;8.85;;;2.50;;
85137;SDS011;75497;42.708;23.330;2024-01-25T12:13:38;9.10;;;2.63;;
85137;SDS011;75497;42.708;23.330;2024-01-25T12:16:04;9.80;;;1.92;;
85137;SDS011;75497;42.708;23.330;2024-01-25T12:18:31;9.02;;;2.05;;
85137;SDS011;75497;42.708;23.330;2024-01-25T12:21:00;8.25;;;1.90;;
85137;SDS011;75497;42.708;23.330;2024-01-25T12:23:31;14.40;;;2.33;;
85137;SDS011;75497;42.708;23.330;2024-01-25T12:26:01;7.75;;;1.55;;
85137;SDS011;75497;42.708;23.330;2024-01-25T12:28:29;11.73;;;2.20;;
85137;SDS011;75497;42.708;23.330;2024-01-25T12:30:56;10.15;;;2.00;;
85137;SDS011;75497;42.708;23.330;2024-01-25T12:33:22;8.60;;;2.13;;
85137;SDS011;75497;42.708;23.330;2024-01-25T12:35:47;6.75;;;2.10;;
85137;SDS011;75497;42.708;23.330;2024-01-25T12:38:13;10.32;;;1.58;;
85137;SDS011;75497;42.708;23.330;2024-01-25T12:40:39;12.25;;;2.40;;
85137;SDS011;75497;42.708;23.330;2024-01-25T12:43:06;12.38;;;2.42;;
85137;SDS011;75497;42.708;23.330;2024-01-25T12:45:32;6.25;;;1.20;;
85137;SDS011;75497;42.708;23.330;2024-01-25T12:47:58;7.72;;;1.85;;
85137;SDS011;75497;42.708;23.330;2024-01-25T12:50:23;6.60;;;1.50;;
85137;SDS011;75497;42.708;23.330;2024-01-25T14:44:23;10.77;;;1.98;;
85137;SDS011;75497;42.708;23.330;2024-01-25T14:46:48;12.60;;;2.42;;
85137;SDS011;75497;42.708;23.330;2024-01-25T14:49:14;11.38;;;2.63;;
85137;SDS011;75497;42.708;23.330;2024-01-25T14:51:40;8.48;;;1.88;;
85137;SDS011;75497;42.708;23.330;2024-01-25T14:54:05;9.02;;;1.60;;
85137;SDS011;75497;42.708;23.330;2024-01-25T14:56:31;12.65;;;1.70;;
85137;SDS011;75497;42.708;23.330;2024-01-25T14:58:56;8.10;;;1.75;;
85137;SDS011;75497;42.708;23.330;2024-01-25T15:01:22;8.10;;;1.42;;
85137;SDS011;75497;42.708;23.330;2024-01-25T15:03:53;9.15;;;1.50;;
85137;SDS011;75497;42.708;23.330;2024-01-25T15:06:19;12.13;;;2.42;;
85137;SDS011;75497;42.708;23.330;2024-01-25T15:08:44;8.38;;;1.77;;
85137;SDS011;75497;42.708;23.330;2024-01-25T15:11:10;8.50;;;1.83;;
85137;SDS011;75497;42.708;23.330;2024-01-25T15:13:36;11.00;;;1.60;;
85137;SDS011;75497;42.708;23.330;2024-01-25T15:16:02;11.48;;;2.55;;
85137;SDS011;75497;42.708;23.330;2024-01-25T15:18:27;11.93;;;1.77;;
85137;SDS011;75497;42.708;23.330;2024-01-25T15:20:53;7.20;;;2.13;;
85137;SDS011;75497;42.708;23.330;2024-01-25T15:23:18;9.65;;;1.75;;
85137;SDS011;75497;42.708;23.330;2024-01-25T15:25:44;11.80;;;2.83;;
85137;SDS011;75497;42.708;23.330;2024-01-25T15:28:09;9.77;;;1.85;;
85137;SDS011;75497;42.708;23.330;2024-01-25T15:30:35;10.57;;;1.80;;
85137;SDS011;75497;42.708;23.330;2024-01-25T15:33:00;10.60;;;1.90;;
85137;SDS011;75497;42.708;23.330;2024-01-25T15:35:27;9.82;;;2.38;;
85137;SDS011;75497;42.708;23.330;2024-01-25T15:37:53;12.77;;;2.35;;
85137;SDS011;75497;42.708;23.330;2024-01-25T15:40:18;9.77;;;2.47;;
85137;SDS011;75497;42.708;23.330;2024-01-25T15:42:45;11.27;;;2.38;;
85137;SDS011;75497;42.708;23.330;2024-01-25T15:45:10;8.30;;;2.10;;
85137;SDS011;75497;42.708;23.330;2024-01-25T15:47:36;11.52;;;2.90;;
85137;SDS011;75497;42.708;23.330;2024-01-25T15:50:02;15.30;;;3.53;;
85137;SDS011;75497;42.708;23.330;2024-01-25T15:52:31;11.20;;;3.00;;
85137;SDS011;75497;42.708;23.330;2024-01-25T15:54:57;10.68;;;3.03;;
85137;SDS011;75497;42.708;23.330;2024-01-25T15:57:23;12.90;;;2.67;;
85137;SDS011;75497;42.708;23.330;2024-01-25T15:59:49;16.10;;;4.18;;
85137;SDS011;75497;42.708;23.330;2024-01-25T16:02:16;13.27;;;3.17;;
85137;SDS011;75497;42.708;23.330;2024-01-25T16:04:42;11.23;;;3.45;;
85137;SDS011;75497;42.708;23.330;2024-01-25T16:07:09;12.07;;;3.97;;
85137;SDS011;75497;42.708;23.330;2024-01-25T16:09:35;9.23;;;2.50;;
85137;SDS011;75497;42.708;23.330;2024-01-25T16:12:04;9.20;;;2.70;;
85137;SDS011;75497;42.708;23.330;2024-01-25T16:14:31;13.68;;;3.67;;
85137;SDS011;75497;42.708;23.330;2024-01-25T16:16:56;13.13;;;3.15;;